Time;durP1;ratioP1;P1;durP2;ratioP2;P2;SDS_P1;SDS_P2;PMS_P1;PMS_P2;Temp;Humidity;BMP_temperature;BMP_pressure;BME280_temperature;BME280_humidity;BME280_pressure;Samples;Min_cycle;Max_cycle;Signal;HPM_P1;HPM_P2
2023/09/20 00:00:11;;;;;;;3.23;1.00;;;;;;;17.26;66.32;100543.44;5075445;28;20906;-70
2023/09/20 00:02:40;;;;;;;1.97;0.50;;;;;;;17.29;65.68;100552.91;5092699;22;20925;-69
2023/09/20 00:05:12;;;;;;;3.60;1.30;;;;;;;17.25;67.06;100547.31;5075558;28;20418;-69
2023/09/20 00:07:39;;;;;;;1.90;0.43;;;;;;;17.24;67.77;100544.94;5075121;28;20553;-69
2023/09/20 00:10:12;;;;;;;1.90;0.57;;;;;;;17.21;68.15;100543.69;5075193;28;21004;-69
2023/09/20 00:12:40;;;;;;;4.37;1.00;;;;;;;17.19;66.38;100542.44;5075535;28;20426;-69
2023/09/20 00:15:08;;;;;;;3.07;0.80;;;;;;;17.21;66.79;100530.00;5075050;28;20818;-69
2023/09/20 00:17:36;;;;;;;1.90;0.43;;;;;;;17.19;65.93;100535.03;5075405;28;20449;-69
2023/09/20 00:20:11;;;;;;;2.50;0.70;;;;;;;17.21;66.19;100545.63;5074622;28;20491;-69
2023/09/20 00:22:40;;;;;;;2.00;0.60;;;;;;;17.18;66.50;100544.38;5075325;28;20432;-69
2023/09/20 00:25:09;;;;;;;2.77;0.70;;;;;;;17.18;66.84;100541.66;5075061;28;20486;-69
2023/09/20 00:27:35;;;;;;;2.20;0.80;;;;;;;17.19;66.37;100543.25;5075076;28;20468;-69
2023/09/20 00:30:02;;;;;;;4.37;1.10;;;;;;;17.18;65.94;100535.34;5074743;28;20456;-69
2023/09/20 00:32:30;;;;;;;2.23;0.63;;;;;;;17.23;69.29;100546.09;5075087;28;20446;-69
2023/09/20 00:34:56;;;;;;;2.50;0.80;;;;;;;17.16;69.69;100543.94;5074767;28;20489;-69
2023/09/20 00:37:23;;;;;;;4.23;1.20;;;;;;;17.12;67.28;100543.03;5075030;28;20457;-69
2023/09/20 00:39:50;;;;;;;2.43;0.63;;;;;;;17.09;67.23;100546.47;5074601;28;20438;-69
2023/09/20 00:42:18;;;;;;;2.03;0.60;;;;;;;17.10;68.17;100548.06;5074898;28;20441;-69
2023/09/20 00:44:45;;;;;;;2.67;0.70;;;;;;;17.06;67.67;100541.69;5074453;28;20437;-69
2023/09/20 00:47:12;;;;;;;2.50;0.83;;;;;;;17.07;67.52;100543.25;5073954;28;20548;-69
2023/09/20 00:49:40;;;;;;;2.00;0.60;;;;;;;17.09;66.81;100546.47;5074504;28;20445;-69
2023/09/20 00:52:09;;;;;;;2.70;0.90;;;;;;;17.09;67.42;100552.75;5074264;28;20475;-69
2023/09/20 00:54:36;;;;;;;2.30;0.67;;;;;;;17.07;67.87;100549.53;5074182;28;20477;-69
2023/09/20 00:57:05;;;;;;;3.33;1.00;;;;;;;17.07;68.58;100537.78;5074178;28;20457;-69
2023/09/20 00:59:33;;;;;;;2.00;0.47;;;;;;;17.01;70.02;100544.66;5073921;28;20445;-69
2023/09/20 01:02:01;;;;;;;2.23;0.67;;;;;;;17.00;67.84;100543.88;5074765;28;20460;-69
2023/09/20 01:04:29;;;;;;;1.97;0.50;;;;;;;17.03;68.67;100542.34;5074050;28;20453;-69
2023/09/20 01:06:56;;;;;;;2.20;0.70;;;;;;;17.02;68.13;100555.25;5074255;28;20459;-69
2023/09/20 01:09:24;;;;;;;2.10;0.60;;;;;;;17.02;70.43;100557.19;5073955;28;20511;-69
2023/09/20 01:11:51;;;;;;;3.70;1.00;;;;;;;16.99;68.20;100557.88;5073593;28;20973;-69
2023/09/20 01:14:19;;;;;;;2.60;0.80;;;;;;;17.01;68.34;100556.41;5073860;28;20532;-69
2023/09/20 01:16:47;;;;;;;2.53;0.60;;;;;;;17.02;69.90;100562.66;5073516;28;20461;-69
2023/09/20 01:19:14;;;;;;;2.73;0.90;;;;;;;17.00;71.32;100554.00;5073810;28;20529;-69
2023/09/20 01:21:43;;;;;;;6.47;0.93;;;;;;;16.97;68.98;100554.69;5073561;28;20446;-69
2023/09/20 01:24:11;;;;;;;2.30;0.80;;;;;;;16.95;70.53;100565.16;5073799;28;20433;-69
2023/09/20 01:26:39;;;;;;;2.93;0.57;;;;;;;16.97;71.53;100565.66;5073787;28;20454;-69
2023/09/20 01:29:06;;;;;;;3.33;1.10;;;;;;;16.94;71.78;100556.16;5073655;28;20444;-69
2023/09/20 01:31:37;;;;;;;2.00;0.60;;;;;;;16.88;70.84;100550.16;5073677;28;20822;-69
2023/09/20 01:34:03;;;;;;;2.20;0.70;;;;;;;16.87;70.83;100562.25;5073761;28;20448;-69
2023/09/20 01:36:30;;;;;;;2.70;1.03;;;;;;;16.88;69.22;100560.28;5073808;28;20517;-69
2023/09/20 01:38:58;;;;;;;3.30;0.87;;;;;;;16.94;69.35;100549.91;5073656;28;20498;-69
2023/09/20 01:41:25;;;;;;;3.10;1.07;;;;;;;16.94;70.98;100544.44;5073570;28;20975;-69
2023/09/20 01:43:51;;;;;;;2.20;0.70;;;;;;;16.93;73.05;100546.38;5073697;28;20452;-69
2023/09/20 01:46:18;;;;;;;6.23;1.07;;;;;;;16.83;71.06;100542.19;5073455;28;20488;-69
2023/09/20 01:48:47;;;;;;;3.43;0.77;;;;;;;16.80;69.52;100544.78;5073506;28;20521;-69
2023/09/20 01:51:14;;;;;;;2.10;0.50;;;;;;;16.83;70.58;100544.91;5073813;28;20445;-69
2023/09/20 01:53:41;;;;;;;2.87;0.70;;;;;;;16.82;70.79;100537.84;5073426;28;20536;-69
2023/09/20 01:56:09;;;;;;;2.00;0.60;;;;;;;16.83;70.76;100542.19;5072976;28;20555;-69
2023/09/20 01:58:36;;;;;;;3.40;0.77;;;;;;;16.88;73.45;100539.19;5073330;28;20452;-69
2023/09/20 02:01:03;;;;;;;2.27;0.70;;;;;;;16.85;72.34;100539.88;5073647;28;20468;-69
2023/09/20 02:03:31;;;;;;;2.10;0.60;;;;;;;16.85;70.81;100548.09;5073433;28;20450;-69
2023/09/20 02:05:58;;;;;;;4.03;0.97;;;;;;;16.90;71.28;100544.31;5073311;28;20457;-69
2023/09/20 02:08:25;;;;;;;2.57;0.73;;;;;;;16.91;70.51;100548.66;5073699;28;20461;-69
2023/09/20 02:10:52;;;;;;;3.47;0.70;;;;;;;16.94;70.30;100552.66;5073320;28;20487;-69
2023/09/20 02:13:20;;;;;;;2.23;0.60;;;;;;;17.00;69.66;100548.50;5073653;28;20809;-69
2023/09/20 02:15:47;;;;;;;2.40;0.77;;;;;;;17.05;70.50;100542.81;5072865;28;20548;-69
2023/09/20 02:18:13;;;;;;;6.07;0.97;;;;;;;17.05;71.12;100561.97;5072912;28;20932;-69
2023/09/20 02:20:40;;;;;;;2.50;0.80;;;;;;;17.10;70.55;100537.09;5073245;28;20441;-69
2023/09/20 02:23:12;;;;;;;2.30;0.70;;;;;;;17.07;70.59;100544.06;5073288;28;20839;-69
2023/09/20 02:25:40;;;;;;;2.80;0.83;;;;;;;17.10;70.71;100539.84;5073151;28;20421;-69
2023/09/20 02:28:07;;;;;;;2.33;0.60;;;;;;;17.09;69.82;100541.78;5073519;28;20465;-69
2023/09/20 02:30:36;;;;;;;1.90;0.50;;;;;;;17.09;70.23;100535.53;5073505;28;20487;-69
2023/09/20 02:33:05;;;;;;;2.80;0.73;;;;;;;17.08;72.05;100533.91;5074199;28;20940;-69
2023/09/20 02:35:33;;;;;;;2.10;0.60;;;;;;;17.08;71.00;100540.19;5076798;28;20489;-69
2023/09/20 02:38:04;;;;;;;2.40;0.60;;;;;;;17.11;70.66;100531.28;5077265;28;20437;-69
2023/09/20 02:40:30;;;;;;;2.37;0.77;;;;;;;17.17;71.44;100536.50;5076939;28;20843;-69
2023/09/20 02:42:59;;;;;;;3.00;0.83;;;;;;;17.20;72.32;100533.88;5076895;28;20531;-69
2023/09/20 02:45:28;;;;;;;2.10;0.50;;;;;;;17.21;70.76;100527.25;5077065;28;20433;-69
2023/09/20 02:47:57;;;;;;;2.20;0.70;;;;;;;17.24;71.68;100543.00;5076585;28;20445;-69
2023/09/20 02:50:25;;;;;;;5.83;0.90;;;;;;;17.29;69.72;100540.00;5077015;28;20445;-69
2023/09/20 02:52:55;;;;;;;1.90;0.50;;;;;;;17.33;70.93;100535.44;5076960;28;20438;-69
2023/09/20 02:55:23;;;;;;;2.00;0.50;;;;;;;17.37;69.58;100519.09;5076501;28;20533;-69
2023/09/20 02:57:52;;;;;;;1.90;0.50;;;;;;;17.36;69.69;100520.25;5076445;28;20497;-69
2023/09/20 03:00:21;;;;;;;2.10;0.60;;;;;;;17.40;69.99;100519.22;5076141;28;20862;-69
2023/09/20 03:02:49;;;;;;;2.73;0.50;;;;;;;17.37;70.06;100519.09;5076239;28;20461;-69
2023/09/20 03:05:18;;;;;;;4.37;0.70;;;;;;;17.33;71.53;100516.25;5076683;28;20435;-69
2023/09/20 03:07:45;;;;;;;2.77;0.83;;;;;;;17.35;70.62;100527.69;5076611;28;20548;-69
2023/09/20 03:10:13;;;;;;;2.10;0.60;;;;;;;17.35;70.89;100522.22;5076644;28;20548;-69
2023/09/20 03:12:42;;;;;;;2.53;0.70;;;;;;;17.39;70.06;100517.59;5076454;28;20437;-69
2023/09/20 03:15:10;;;;;;;2.00;0.50;;;;;;;17.36;70.45;100521.06;5075767;28;20449;-69
2023/09/20 03:17:37;;;;;;;2.40;0.80;;;;;;;17.36;71.49;100518.31;5076097;28;20461;-69
2023/09/20 03:20:09;;;;;;;2.30;0.83;;;;;;;17.34;70.94;100522.53;5076159;28;20452;-69
2023/09/20 03:22:37;;;;;;;2.40;0.70;;;;;;;17.32;70.74;100517.41;5076379;28;20426;-69
2023/09/20 03:25:05;;;;;;;2.60;0.77;;;;;;;17.31;70.79;100520.47;5075696;28;20437;-70
2023/09/20 03:27:31;;;;;;;2.57;0.70;;;;;;;17.29;71.00;100528.25;5076015;28;20540;-70
2023/09/20 03:29:58;;;;;;;1.90;0.40;;;;;;;17.27;71.14;100516.88;5075958;28;20441;-70
2023/09/20 03:32:25;;;;;;;2.83;0.80;;;;;;;17.22;71.37;100515.19;5076168;28;20530;-70
2023/09/20 03:34:51;;;;;;;2.10;0.57;;;;;;;17.21;71.72;100516.31;5075946;28;20857;-69
2023/09/20 03:37:18;;;;;;;2.30;0.70;;;;;;;17.19;71.98;100521.34;5075734;28;20488;-69
2023/09/20 03:39:47;;;;;;;2.40;0.87;;;;;;;17.19;73.25;100523.28;5075720;28;20563;-69
2023/09/20 03:42:14;;;;;;;3.00;0.80;;;;;;;17.12;72.89;100521.13;5075740;28;20449;-69
2023/09/20 03:44:41;;;;;;;3.50;0.90;;;;;;;17.04;73.16;100509.16;5075564;28;20441;-69
2023/09/20 03:47:08;;;;;;;3.60;0.70;;;;;;;16.99;74.74;100512.16;5075330;28;20880;-69
2023/09/20 03:49:35;;;;;;;2.90;0.80;;;;;;;16.98;74.30;100507.03;5075543;28;20856;-69
2023/09/20 03:52:02;;;;;;;2.00;0.60;;;;;;;16.96;74.80;100512.06;5075767;28;20925;-69
2023/09/20 03:54:30;;;;;;;2.00;0.50;;;;;;;16.90;74.50;100509.53;5076183;28;20433;-69
2023/09/20 03:56:59;;;;;;;3.90;0.87;;;;;;;16.91;74.63;100513.09;5079863;28;20506;-70
2023/09/20 03:59:26;;;;;;;2.00;0.50;;;;;;;16.88;74.84;100506.38;5080734;28;20849;-70
2023/09/20 04:01:53;;;;;;;2.47;0.77;;;;;;;16.88;75.60;100516.53;5076325;28;20495;-70
2023/09/20 04:04:19;;;;;;;2.10;0.60;;;;;;;16.83;75.46;100512.09;5074985;28;20528;-70
2023/09/20 04:06:46;;;;;;;2.40;0.60;;;;;;;16.82;76.71;100515.16;5075179;28;20506;-70
2023/09/20 04:09:13;;;;;;;3.00;0.73;;;;;;;16.80;77.62;100512.75;5074903;28;20511;-70
2023/09/20 04:11:41;;;;;;;2.07;0.60;;;;;;;16.76;77.91;100514.59;5075177;28;20520;-70
2023/09/20 04:14:09;;;;;;;2.97;0.90;;;;;;;16.73;78.08;100509.00;5075246;28;20433;-70
2023/09/20 04:16:37;;;;;;;2.40;0.70;;;;;;;16.72;77.81;100519.16;5074630;28;20485;-70
2023/09/20 04:19:04;;;;;;;2.20;0.50;;;;;;;16.72;77.62;100519.16;5074975;28;20789;-70
2023/09/20 04:21:31;;;;;;;2.40;0.80;;;;;;;16.72;78.03;100519.16;5075064;28;20460;-70
2023/09/20 04:23:59;;;;;;;3.20;0.73;;;;;;;16.66;78.04;100517.78;5075144;28;20433;-70
2023/09/20 04:26:25;;;;;;;2.47;0.60;;;;;;;16.66;77.81;100520.50;5075221;28;20457;-70
2023/09/20 04:28:52;;;;;;;2.93;0.73;;;;;;;16.69;76.71;100524.47;5075254;28;20489;-70
2023/09/20 04:31:20;;;;;;;2.23;0.70;;;;;;;16.70;77.75;100521.41;5075074;28;20524;-70
2023/09/20 04:33:47;;;;;;;2.13;0.70;;;;;;;16.69;78.36;100521.75;5074172;28;20810;-70
2023/09/20 04:36:13;;;;;;;2.30;0.80;;;;;;;16.67;78.17;100524.03;5074005;28;20485;-70
2023/09/20 04:38:41;;;;;;;2.40;0.80;;;;;;;16.69;77.96;100533.50;5074371;28;20469;-70
2023/09/20 04:41:11;;;;;;;2.20;0.60;;;;;;;16.66;79.44;100531.44;5074318;28;20444;-72
2023/09/20 04:43:38;;;;;;;2.20;0.70;;;;;;;16.61;80.63;100537.94;5074448;28;20421;-72
2023/09/20 04:46:05;;;;;;;2.10;0.50;;;;;;;16.56;79.45;100534.66;5073928;28;20485;-73
2023/09/20 04:48:33;;;;;;;2.10;0.70;;;;;;;16.58;80.58;100540.56;5074631;28;20795;-72
2023/09/20 04:51:00;;;;;;;5.30;1.47;;;;;;;16.52;82.63;100536.47;5074579;28;20875;-72
2023/09/20 04:53:27;;;;;;;2.90;1.00;;;;;;;16.47;81.45;100542.16;5074415;28;20528;-72
2023/09/20 04:55:53;;;;;;;2.23;0.60;;;;;;;16.46;80.97;100543.28;5073221;28;20485;-72
2023/09/20 04:58:20;;;;;;;2.20;0.60;;;;;;;16.48;80.44;100539.09;5073725;28;20816;-72
2023/09/20 05:00:48;;;;;;;2.00;0.60;;;;;;;16.54;79.85;100542.38;5074576;28;20433;-72
2023/09/20 05:03:15;;;;;;;2.20;0.60;;;;;;;16.57;80.57;100541.72;5073858;28;20453;-72
2023/09/20 05:05:45;;;;;;;2.30;0.70;;;;;;;16.60;80.31;100551.94;5073988;28;20818;-72
2023/09/20 05:08:15;;;;;;;3.27;1.10;;;;;;;16.62;79.80;100550.47;5073770;28;20944;-72
2023/09/20 05:10:42;;;;;;;2.37;0.80;;;;;;;16.61;81.56;100548.88;5074092;28;20479;-72
2023/09/20 05:13:09;;;;;;;2.03;0.53;;;;;;;16.63;82.17;100541.13;5074704;28;20537;-72
2023/09/20 05:15:36;;;;;;;2.30;0.70;;;;;;;16.67;82.09;100541.25;5073729;28;20441;-69
2023/09/20 05:18:03;;;;;;;2.30;0.70;;;;;;;16.64;82.76;100539.19;5073444;28;20996;-72
2023/09/20 05:20:31;;;;;;;2.40;0.60;;;;;;;16.65;84.01;100549.00;5074019;28;20494;-72
2023/09/20 05:23:04;;;;;;;2.17;0.63;;;;;;;16.64;83.46;100544.66;5074152;28;20477;-71
2023/09/20 05:25:31;;;;;;;2.57;0.70;;;;;;;16.63;84.39;100551.28;5074429;28;20486;-71
2023/09/20 05:27:58;;;;;;;2.60;0.83;;;;;;;16.61;84.63;100550.81;5074568;28;20433;-71
2023/09/20 05:30:26;;;;;;;2.10;0.60;;;;;;;16.59;83.10;100553.88;5074413;28;20441;-73
2023/09/20 05:32:53;;;;;;;2.10;0.70;;;;;;;16.62;84.13;100557.88;5073814;28;20441;-73
2023/09/20 05:35:20;;;;;;;2.30;0.70;;;;;;;16.62;83.61;100561.41;5074070;28;20437;-71
2023/09/20 05:37:46;;;;;;;2.47;0.93;;;;;;;16.64;82.89;100550.13;5073319;28;20539;-72
2023/09/20 05:40:17;;;;;;;2.00;0.43;;;;;;;16.69;83.12;100551.81;5074019;28;20480;-70
2023/09/20 05:42:44;;;;;;;2.80;0.50;;;;;;;16.72;82.48;100560.19;5073382;28;20430;-70
2023/09/20 05:45:12;;;;;;;2.00;0.63;;;;;;;16.72;82.11;100553.88;5073516;28;20445;-72
2023/09/20 05:47:39;;;;;;;2.30;0.80;;;;;;;16.76;82.26;100561.09;5073196;28;20825;-71
2023/09/20 05:50:07;;;;;;;2.00;0.60;;;;;;;16.84;82.76;100567.59;5073864;28;20491;-71
2023/09/20 05:52:34;;;;;;;13.83;0.80;;;;;;;16.82;82.50;100576.16;5073556;28;20465;-71
2023/09/20 05:55:00;;;;;;;2.20;0.70;;;;;;;16.83;82.58;100566.81;5073498;28;20484;-71
2023/09/20 05:57:28;;;;;;;2.10;0.57;;;;;;;16.90;82.25;100571.69;5073354;28;20575;-71
2023/09/20 05:59:56;;;;;;;2.50;0.90;;;;;;;16.90;82.74;100572.47;5073920;28;20452;-71
2023/09/20 06:02:23;;;;;;;2.80;0.80;;;;;;;16.92;82.35;100574.88;5087937;22;20433;-69
2023/09/20 06:04:50;;;;;;;2.20;0.60;;;;;;;17.03;82.62;100580.69;5076312;28;20453;-68
2023/09/20 06:07:17;;;;;;;2.67;0.70;;;;;;;17.07;83.52;100574.16;5076515;28;20515;-69
2023/09/20 06:09:44;;;;;;;2.80;0.90;;;;;;;17.13;82.27;100574.72;5077898;28;20929;-68
2023/09/20 06:12:10;;;;;;;3.53;0.83;;;;;;;17.24;82.17;100575.06;5079779;28;20494;-72
2023/09/20 06:14:38;;;;;;;2.50;0.60;;;;;;;17.29;82.79;100572.88;5086887;28;20472;-71
2023/09/20 06:17:05;;;;;;;2.67;0.60;;;;;;;17.38;82.36;100573.53;5087602;28;20485;-72
2023/09/20 06:19:31;;;;;;;2.23;0.63;;;;;;;17.48;81.48;100583.19;5084677;28;20540;-71
2023/09/20 06:21:58;;;;;;;2.37;0.70;;;;;;;17.51;82.62;100574.28;5079999;28;20524;-70
2023/09/20 06:24:25;;;;;;;2.83;0.90;;;;;;;17.58;81.43;100590.13;5076949;28;20929;-71
2023/09/20 06:26:52;;;;;;;2.43;0.73;;;;;;;17.64;81.11;100584.03;5077075;28;21011;-70
2023/09/20 06:29:19;;;;;;;2.30;0.70;;;;;;;17.80;81.37;100594.28;5077077;28;20467;-71
2023/09/20 06:31:47;;;;;;;3.17;0.70;;;;;;;17.93;81.41;100587.59;5077040;28;20442;-69
2023/09/20 06:34:18;;;;;;;2.80;0.70;;;;;;;18.02;79.67;100593.72;5077060;28;20533;-70
2023/09/20 06:36:44;;;;;;;2.30;0.80;;;;;;;18.14;80.32;100592.84;5076605;28;20534;-70
2023/09/20 06:39:11;;;;;;;2.77;0.93;;;;;;;18.19;79.12;100600.81;5076648;28;20524;-69
2023/09/20 06:41:41;;;;;;;2.00;0.50;;;;;;;18.30;78.97;100599.16;5076941;28;21016;-69
2023/09/20 06:44:08;;;;;;;2.60;0.70;;;;;;;18.36;77.97;100597.72;5076582;28;20457;-68
2023/09/20 06:46:35;;;;;;;3.30;0.97;;;;;;;18.49;78.42;100594.91;5076273;28;20507;-70
2023/09/20 06:49:03;;;;;;;3.80;0.90;;;;;;;18.58;78.35;100599.06;5076350;28;20933;-69
2023/09/20 06:51:30;;;;;;;2.60;0.90;;;;;;;18.66;75.83;100608.25;5076254;28;20441;-69
2023/09/20 06:53:58;;;;;;;2.20;0.53;;;;;;;18.65;76.47;100612.97;5076908;28;20437;-69
2023/09/20 06:56:25;;;;;;;2.43;0.67;;;;;;;18.76;76.70;100598.72;5076467;28;20516;-68
2023/09/20 06:58:53;;;;;;;2.10;0.60;;;;;;;18.89;76.48;100609.22;5076987;28;20448;-68
2023/09/20 07:01:20;;;;;;;2.00;0.50;;;;;;;19.00;76.81;100608.69;5076431;28;20468;-68
2023/09/20 07:03:47;;;;;;;3.73;0.70;;;;;;;19.05;75.21;100608.44;5076636;28;20972;-69
2023/09/20 07:06:15;;;;;;;2.23;0.50;;;;;;;19.09;76.58;100607.34;5075970;28;20586;-69
2023/09/20 07:08:42;;;;;;;2.10;0.63;;;;;;;19.16;76.58;100612.19;5076728;28;20441;-69
2023/09/20 07:11:11;;;;;;;2.30;0.70;;;;;;;19.25;76.00;100606.50;5076077;28;20961;-69
2023/09/20 07:13:37;;;;;;;3.23;0.90;;;;;;;19.32;74.23;100609.41;5076272;28;20442;-69
2023/09/20 07:16:05;;;;;;;2.03;0.67;;;;;;;19.28;73.83;100609.31;5076374;28;20476;-69
2023/09/20 07:18:32;;;;;;;2.00;0.50;;;;;;;19.26;74.91;100619.88;5075545;28;20477;-69
2023/09/20 07:20:59;;;;;;;5.17;0.77;;;;;;;19.28;75.17;100614.03;5076270;28;20532;-69
2023/09/20 07:23:29;;;;;;;2.50;0.80;;;;;;;19.33;74.73;100617.28;5076813;28;20524;-70
2023/09/20 07:25:56;;;;;;;2.10;0.60;;;;;;;19.32;74.41;100612.94;5076072;28;20465;-70
2023/09/20 07:28:24;;;;;;;2.30;0.73;;;;;;;19.31;75.77;100608.63;5076550;28;20429;-69
2023/09/20 07:30:51;;;;;;;2.30;0.70;;;;;;;19.32;74.46;100609.41;5076119;28;20446;-69
2023/09/20 07:33:23;;;;;;;2.20;0.70;;;;;;;19.33;75.46;100606.28;5076036;28;20535;-69
2023/09/20 07:35:58;;;;;;;3.13;0.80;;;;;;;19.36;74.85;100610.28;5075944;28;20457;-69
2023/09/20 07:38:28;;;;;;;2.93;0.70;;;;;;;19.38;75.32;100608.75;5076498;28;20474;-69
2023/09/20 07:41:12;;;;;;;2.40;0.80;;;;;;;19.38;74.67;100611.50;5076441;28;20418;-69
2023/09/20 07:43:39;;;;;;;2.43;0.83;;;;;;;19.38;75.65;100617.00;5075691;28;20785;-69
2023/09/20 07:46:07;;;;;;;2.23;0.63;;;;;;;19.39;75.62;100620.56;5075491;28;20907;-67
2023/09/20 07:48:34;;;;;;;1.97;0.50;;;;;;;19.40;76.79;100622.94;5075990;28;20477;-68
2023/09/20 07:51:01;;;;;;;2.20;0.70;;;;;;;19.44;76.56;100622.22;5075900;28;20438;-69
2023/09/20 07:53:29;;;;;;;2.77;0.80;;;;;;;19.46;75.34;100625.41;5075413;28;20809;-68
2023/09/20 07:56:01;;;;;;;2.93;0.90;;;;;;;19.54;75.33;100624.41;5075601;28;20457;-68
2023/09/20 07:58:28;;;;;;;2.80;0.60;;;;;;;19.61;76.41;100625.38;5075731;28;20477;-68
2023/09/20 08:00:56;;;;;;;2.60;0.80;;;;;;;19.78;74.82;100626.88;5075374;28;20491;-69
2023/09/20 08:03:23;;;;;;;2.63;0.80;;;;;;;19.89;73.76;100627.88;5075419;28;20457;-68
2023/09/20 08:05:50;;;;;;;3.50;0.87;;;;;;;19.96;74.58;100623.69;5075641;28;20465;-68
2023/09/20 08:08:17;;;;;;;2.80;0.70;;;;;;;20.01;73.04;100637.13;5075753;28;20467;-68
2023/09/20 08:10:45;;;;;;;2.40;0.67;;;;;;;20.00;73.06;100632.78;5075008;28;20473;-68
2023/09/20 08:13:12;;;;;;;2.00;0.50;;;;;;;20.04;74.10;100639.94;5075198;28;20451;-68
2023/09/20 08:15:42;;;;;;;2.10;0.67;;;;;;;20.07;74.21;100638.44;5074853;28;20790;-68
2023/09/20 08:20:53;;;;;;;3.17;1.00;;;;;;;20.16;72.58;100628.00;5075503;28;20409;-68
2023/09/20 09:01:48;;;;;;;2.10;0.60;;;;;;;21.06;68.09;100635.81;5074199;28;20783;-68
2023/09/20 09:04:18;;;;;;;2.23;0.77;;;;;;;21.03;69.08;100636.53;5074381;28;21020;-68
2023/09/20 09:06:45;;;;;;;2.73;0.70;;;;;;;21.03;69.99;100628.28;5074047;28;20479;-68
2023/09/20 09:09:11;;;;;;;2.30;0.70;;;;;;;21.01;69.32;100622.34;5074018;28;20520;-68
2023/09/20 09:11:38;;;;;;;6.80;0.87;;;;;;;20.94;69.36;100620.31;5074084;28;20515;-68
2023/09/20 09:14:07;;;;;;;2.67;1.07;;;;;;;20.90;69.77;100617.50;5073950;28;20524;-69
2023/09/20 09:16:34;;;;;;;2.00;0.50;;;;;;;20.87;71.61;100615.47;5073784;28;20453;-68
2023/09/20 09:19:01;;;;;;;2.30;0.80;;;;;;;20.87;70.49;100615.47;5073589;28;20573;-68
2023/09/20 09:21:28;;;;;;;2.20;0.60;;;;;;;20.90;70.70;100613.94;5073872;28;20438;-68
2023/09/20 09:23:54;;;;;;;2.40;1.00;;;;;;;20.84;69.37;100616.19;5074106;28;20509;-68
2023/09/20 09:26:23;;;;;;;2.80;0.93;;;;;;;20.88;70.65;100628.06;5073572;28;20489;-68
2023/09/20 09:28:50;;;;;;;3.40;0.97;;;;;;;20.87;71.11;100620.97;5073815;28;20528;-69
2023/09/20 09:31:18;;;;;;;3.30;0.77;;;;;;;20.90;71.13;100614.75;5073760;28;20528;-69
2023/09/20 09:33:44;;;;;;;2.70;0.87;;;;;;;20.96;72.70;100622.69;5073638;28;20862;-68
2023/09/20 09:36:12;;;;;;;3.30;0.80;;;;;;;20.99;72.00;100619.97;5073366;28;20461;-68
2023/09/20 09:38:39;;;;;;;2.57;0.83;;;;;;;21.04;71.59;100624.38;5074049;28;20477;-69
2023/09/20 09:41:08;;;;;;;5.63;1.03;;;;;;;21.04;69.67;100618.88;5073871;28;20795;-68
2023/09/20 09:43:35;;;;;;;2.50;0.80;;;;;;;21.01;69.58;100622.34;5073552;28;20779;-68
2023/09/20 09:46:06;;;;;;;2.30;0.70;;;;;;;20.96;71.22;100617.16;5073190;28;20468;-68
2023/09/20 09:48:35;;;;;;;2.47;0.70;;;;;;;21.03;72.11;100620.00;5073324;28;20778;-68
2023/09/20 09:51:04;;;;;;;2.37;0.60;;;;;;;21.11;71.15;100618.94;5073573;28;20469;-68
2023/09/20 09:53:34;;;;;;;2.43;0.77;;;;;;;21.23;68.52;100617.94;5073896;28;20490;-68
2023/09/20 09:56:04;;;;;;;2.20;0.70;;;;;;;21.35;68.25;100621.31;5073726;28;20540;-68
2023/09/20 09:58:31;;;;;;;2.43;0.80;;;;;;;21.39;70.03;100621.34;5074168;28;20572;-68
2023/09/20 10:00:58;;;;;;;4.60;1.17;;;;;;;21.44;68.37;100607.25;5073351;28;20520;-68
2023/09/20 10:03:29;;;;;;;3.10;0.77;;;;;;;21.52;69.64;100610.91;5073972;28;20481;-69
2023/09/20 10:06:05;;;;;;;2.43;0.97;;;;;;;21.60;67.70;100609.78;5073669;28;20544;-69
2023/09/20 10:08:34;;;;;;;3.07;0.90;;;;;;;21.69;67.22;100604.00;5073530;28;20418;-69
2023/09/20 10:11:02;;;;;;;2.27;0.83;;;;;;;21.75;67.48;100603.28;5073386;28;20476;-69
2023/09/20 10:13:29;;;;;;;2.70;0.90;;;;;;;21.86;67.20;100606.16;5073104;28;20862;-69
2023/09/20 10:15:58;;;;;;;2.93;0.90;;;;;;;21.95;66.61;100595.63;5072969;28;20493;-68
2023/09/20 10:18:29;;;;;;;2.63;0.80;;;;;;;22.04;66.38;100596.09;5073446;28;20476;-68
2023/09/20 10:20:58;;;;;;;2.20;0.57;;;;;;;22.17;64.55;100591.13;5073577;28;20448;-69
2023/09/20 10:23:27;;;;;;;2.20;0.70;;;;;;;22.23;66.05;100589.63;5073239;28;20447;-69
2023/09/20 10:25:58;;;;;;;3.00;1.00;;;;;;;22.38;66.19;100588.56;5073475;28;20457;-69
2023/09/20 10:28:25;;;;;;;2.73;1.00;;;;;;;22.54;64.71;100593.84;5073397;28;20436;-68
2023/09/20 10:31:01;;;;;;;2.13;0.70;;;;;;;22.63;63.21;100590.75;5073691;28;20460;-68
2023/09/20 10:33:46;;;;;;;2.87;0.90;;;;;;;22.65;65.98;100593.91;5073417;28;20869;-68
2023/09/20 10:36:14;;;;;;;2.63;0.63;;;;;;;22.77;63.46;100587.31;5073492;28;20498;-69
2023/09/20 10:38:44;;;;;;;2.37;0.70;;;;;;;22.84;62.37;100590.09;5073299;28;20554;-68
2023/09/20 10:41:12;;;;;;;2.07;0.53;;;;;;;22.89;62.25;100587.00;5073369;28;20495;-68
2023/09/20 10:43:48;;;;;;;2.70;0.80;;;;;;;22.89;64.61;100584.25;5072877;28;20484;-69
2023/09/20 10:46:22;;;;;;;1.97;0.53;;;;;;;22.90;63.81;100578.34;5073379;28;20506;-69
2023/09/20 10:48:50;;;;;;;2.23;0.87;;;;;;;22.95;62.25;100577.19;5073441;28;20439;-68
2023/09/20 10:51:42;;;;;;;2.37;0.63;;;;;;;22.88;60.69;100571.59;5073392;28;20434;-68
2023/09/20 10:54:22;;;;;;;2.83;0.90;;;;;;;22.82;62.00;100571.16;5074563;28;20439;-69
2023/09/20 10:57:07;;;;;;;3.17;1.10;;;;;;;22.85;61.81;100564.88;5076999;28;20957;-68
2023/09/20 10:59:34;;;;;;;2.57;0.60;;;;;;;22.82;62.01;100562.88;5076900;28;20865;-68
2023/09/20 11:02:05;;;;;;;5.63;1.10;;;;;;;22.78;62.03;100553.78;5076516;28;20441;-68
2023/09/20 11:04:32;;;;;;;2.20;0.80;;;;;;;22.76;62.65;100561.66;5076887;28;20464;-68
2023/09/20 11:06:59;;;;;;;2.17;0.87;;;;;;;22.75;63.06;100560.06;5076367;28;20821;-68
2023/09/20 11:09:31;;;;;;;2.30;0.73;;;;;;;22.99;62.94;100557.88;5076454;28;20508;-68
2023/09/20 11:12:04;;;;;;;3.10;0.90;;;;;;;23.59;63.05;100560.88;5076101;28;20421;-68
2023/09/20 11:14:32;;;;;;;2.40;1.00;;;;;;;24.11;57.87;100566.19;5076328;28;20413;-68
2023/09/20 11:16:59;;;;;;;2.67;1.10;;;;;;;24.65;55.79;100553.94;5076014;28;20497;-68
2023/09/20 11:19:26;;;;;;;3.17;1.10;;;;;;;25.69;56.80;100558.38;5076229;28;20888;-69
2023/09/20 11:21:53;;;;;;;2.17;0.80;;;;;;;26.57;51.92;100562.53;5076403;28;20445;-69
2023/09/20 11:24:20;;;;;;;2.80;1.23;;;;;;;26.53;49.76;100561.00;5076779;28;20438;-69
2023/09/20 11:26:48;;;;;;;2.70;1.00;;;;;;;25.92;51.23;100570.53;5076187;28;20461;-69
2023/09/20 11:29:16;;;;;;;2.10;0.60;;;;;;;26.02;51.50;100562.56;5076447;28;20429;-68
2023/09/20 11:31:45;;;;;;;2.80;0.63;;;;;;;26.79;50.82;100565.91;5076510;28;20528;-69
2023/09/20 11:34:12;;;;;;;2.30;0.77;;;;;;;27.58;48.53;100568.59;5075663;28;20453;-69
2023/09/20 11:36:39;;;;;;;2.60;0.77;;;;;;;28.17;46.60;100573.72;5076319;28;20495;-69
2023/09/20 11:39:06;;;;;;;2.10;0.70;;;;;;;28.39;45.31;100573.41;5076234;28;20571;-69
2023/09/20 11:41:33;;;;;;;2.30;0.70;;;;;;;28.29;45.76;100569.56;5075496;28;20429;-69
2023/09/20 11:44:02;;;;;;;2.10;0.60;;;;;;;28.51;46.10;100570.00;5075807;28;20445;-69
2023/09/20 11:46:29;;;;;;;2.30;0.80;;;;;;;29.19;45.54;100571.56;5075812;28;20518;-69
2023/09/20 11:48:59;;;;;;;2.00;0.60;;;;;;;29.44;45.17;100559.06;5075705;28;20447;-69
2023/09/20 11:51:26;;;;;;;4.20;0.93;;;;;;;29.53;44.23;100573.22;5076038;28;20526;-69
2023/09/20 11:53:52;;;;;;;1.90;0.50;;;;;;;29.49;43.55;100569.75;5075638;28;20459;-69
2023/09/20 11:56:24;;;;;;;2.33;0.90;;;;;;;29.37;43.67;100568.41;5075493;28;20552;-69
2023/09/20 11:58:53;;;;;;;2.40;0.60;;;;;;;29.12;45.54;100558.53;5075668;28;20465;-69
2023/09/20 12:01:25;;;;;;;4.03;0.83;;;;;;;29.73;44.43;100562.84;5075574;28;20438;-69
2023/09/20 12:03:52;;;;;;;2.00;0.50;;;;;;;30.34;43.01;100561.44;5076300;22;20489;-70
2023/09/20 12:06:19;;;;;;;2.60;0.90;;;;;;;29.99;43.62;100552.69;5055422;28;20470;-69
2023/09/20 12:08:46;;;;;;;4.33;0.77;;;;;;;29.48;45.21;100548.63;5055416;28;20470;-69